createdAt,value
2023-02-27T08:44:03.350Z,16.50
2023-02-27T10:03:53.780Z,20.20
2023-02-27T10:06:43.864Z,20.90
2023-02-27T10:09:36.437Z,22.10
2023-02-27T10:12:41.784Z,22.10
2023-02-27T10:15:26.853Z,23.70
2023-02-27T10:17:59.950Z,22.60
2023-02-27T10:22:56.675Z,22.70
2023-02-27T10:25:31.645Z,22.20
2023-02-27T10:28:17.794Z,22.60
2023-02-27T10:33:36.650Z,22.50
2023-02-27T10:36:12.446Z,22.10
2023-02-27T10:38:47.186Z,21.00
2023-02-27T10:41:17.252Z,20.80
2023-02-27T10:46:19.132Z,22.60
2023-02-27T10:51:27.598Z,23.20
2023-02-27T10:54:13.970Z,22.00
2023-02-27T10:59:18.562Z,18.90
2023-02-27T11:01:58.885Z,17.00
2023-02-27T11:12:13.117Z,21.90
2023-02-27T11:14:54.958Z,23.60
2023-02-27T11:17:34.119Z,24.30
2023-02-27T11:20:05.551Z,22.60
2023-02-27T11:22:32.861Z,20.40
2023-02-27T11:25:23.926Z,18.90
2023-02-27T11:42:55.006Z,21.50
2023-02-27T11:48:15.799Z,25.70
2023-02-27T11:50:52.089Z,25.60
2023-02-27T11:53:27.795Z,26.50
2023-02-27T11:55:59.493Z,27.20
2023-02-27T11:58:31.243Z,27.70
2023-02-27T12:01:06.556Z,26.60
2023-02-27T12:06:04.878Z,27.20
2023-02-27T12:08:47.842Z,27.70
2023-02-27T12:11:30.011Z,28.20
2023-02-27T12:14:18.030Z,28.90
2023-02-27T12:17:00.034Z,27.20
2023-02-27T12:19:30.395Z,28.60
2023-02-27T12:22:04.318Z,28.70
2023-02-27T12:24:43.926Z,28.10
2023-02-27T12:27:21.577Z,27.40
2023-02-27T12:29:53.961Z,25.40
2023-02-27T12:32:44.042Z,25.20
2023-02-27T12:35:36.726Z,27.30
2023-02-27T12:38:06.925Z,26.50
2023-02-27T12:40:39.481Z,24.90
2023-02-27T12:43:27.459Z,24.60
2023-02-27T12:46:27.740Z,24.30
2023-02-27T12:49:16.273Z,22.70
2023-02-27T12:54:30.793Z,23.90
2023-02-27T12:57:02.554Z,25.10
2023-02-27T12:59:54.011Z,25.60
2023-02-27T13:02:48.562Z,22.10
2023-02-27T13:05:29.856Z,21.60
2023-02-27T13:08:17.846Z,20.10
2023-02-27T13:21:20.869Z,22.20
2023-02-27T21:39:07.253Z,2.70
2023-02-27T21:56:36.703Z,2.70
